Time;durP1;ratioP1;P1;durP2;ratioP2;P2;SDS_P1;SDS_P2;PMS_P1;PMS_P2;Temp;Humidity;BMP_temperature;BMP_pressure;BME280_temperature;BME280_humidity;BME280_pressure;Samples;Min_cycle;Max_cycle;Signal;HPM_P1;HPM_P2
2023/03/16 00:02:11;;;;;;;6.57;3.00;;;3.60;99.90;;;;;;5002220;28;20520;-69
2023/03/16 00:04:36;;;;;;;8.95;2.72;;;3.60;99.90;;;;;;5001658;28;20431;-66
2023/03/16 00:07:12;;;;;;;6.85;2.95;;;3.60;99.90;;;;;;5002004;28;20435;-67
2023/03/16 00:09:41;;;;;;;4.53;2.80;;;3.70;99.90;;;;;;5017927;28;20428;-67
2023/03/16 00:12:14;;;;;;;6.15;2.28;;;3.60;99.90;;;;;;5000094;28;20722;-67
2023/03/16 00:14:45;;;;;;;6.25;2.70;;;3.70;99.90;;;;;;4996729;28;20441;-68
2023/03/16 00:17:17;;;;;;;6.20;2.40;;;3.70;99.90;;;;;;5003581;28;20432;-68
2023/03/16 00:19:53;;;;;;;8.68;2.65;;;3.70;99.90;;;;;;5005059;28;20417;-67
2023/03/16 00:22:21;;;;;;;6.57;2.00;;;3.80;99.90;;;;;;4990609;28;20434;-68
2023/03/16 00:24:47;;;;;;;6.60;2.85;;;3.80;99.90;;;;;;5004372;28;20427;-67
2023/03/16 00:27:13;;;;;;;5.47;2.20;;;3.80;99.90;;;;;;5003862;28;20425;-69
2023/03/16 00:29:45;;;;;;;12.68;3.95;;;3.90;99.90;;;;;;5003966;28;20735;-67
2023/03/16 00:32:13;;;;;;;6.95;2.13;;;3.80;99.90;;;;;;4988094;28;20779;-68
2023/03/16 00:34:38;;;;;;;7.38;2.58;;;3.80;99.90;;;;;;5003518;28;20476;-69
2023/03/16 00:37:04;;;;;;;7.60;2.10;;;3.90;99.90;;;;;;5003336;28;20915;-68
2023/03/16 00:39:34;;;;;;;6.53;2.63;;;3.90;99.90;;;;;;5001275;28;20771;-67
2023/03/16 00:42:03;;;;;;;4.85;2.30;;;3.90;99.90;;;;;;5002242;28;20795;-69
2023/03/16 00:44:29;;;;;;;4.88;2.03;;;3.90;99.90;;;;;;5006457;28;20420;-69
2023/03/16 00:46:54;;;;;;;6.90;2.60;;;4.00;99.90;;;;;;4997779;28;20907;-69
2023/03/16 00:49:21;;;;;;;5.70;1.98;;;4.00;99.90;;;;;;4996433;28;20776;-68
2023/03/16 00:51:47;;;;;;;5.30;2.30;;;3.90;99.90;;;;;;4994511;28;20881;-69
2023/03/16 00:54:12;;;;;;;5.78;2.15;;;3.90;99.90;;;;;;4998049;28;20509;-70
2023/03/16 00:56:38;;;;;;;5.82;2.20;;;4.00;99.90;;;;;;4999390;28;20428;-67
2023/03/16 00:59:04;;;;;;;4.93;2.50;;;3.90;99.90;;;;;;5006457;28;20424;-67
2023/03/16 01:01:31;;;;;;;7.10;2.58;;;3.90;99.90;;;;;;5003190;28;20432;-68
2023/03/16 01:04:00;;;;;;;7.30;2.22;;;3.90;99.90;;;;;;4999912;28;20430;-68
2023/03/16 01:06:26;;;;;;;7.18;2.10;;;3.90;99.90;;;;;;4999847;28;20943;-68
2023/03/16 01:08:52;;;;;;;5.93;2.10;;;3.80;99.90;;;;;;5003320;28;20462;-68
2023/03/16 01:11:21;;;;;;;5.45;2.13;;;3.90;99.90;;;;;;5002746;28;20428;-69
2023/03/16 01:13:48;;;;;;;8.65;2.88;;;3.80;99.90;;;;;;5007307;28;20460;-69
2023/03/16 01:16:23;;;;;;;5.57;1.73;;;3.80;99.90;;;;;;5003814;28;20464;-68
2023/03/16 01:18:51;;;;;;;6.50;2.55;;;3.70;99.90;;;;;;5000622;28;20456;-68
2023/03/16 01:21:16;;;;;;;6.13;2.50;;;3.60;99.90;;;;;;4986697;28;20485;-67
2023/03/16 01:23:43;;;;;;;5.90;2.90;;;3.70;99.90;;;;;;5001304;28;20519;-67
2023/03/16 01:26:09;;;;;;;6.43;2.40;;;3.60;99.90;;;;;;4988654;28;20470;-67
2023/03/16 01:28:36;;;;;;;6.05;2.67;;;3.60;99.90;;;;;;5005329;28;20431;-68
2023/03/16 01:31:08;;;;;;;8.45;2.75;;;3.50;99.90;;;;;;4990536;28;20482;-66
2023/03/16 01:33:34;;;;;;;7.38;2.88;;;3.50;99.90;;;;;;5000514;28;20435;-67
2023/03/16 01:36:13;;;;;;;5.55;2.40;;;3.50;99.90;;;;;;5003442;28;20994;-68
2023/03/16 01:38:39;;;;;;;5.07;3.15;;;3.40;99.90;;;;;;4993408;28;20422;-69
2023/03/16 01:41:05;;;;;;;4.82;2.90;;;3.40;99.90;;;;;;5004699;28;20471;-69
2023/03/16 01:43:33;;;;;;;6.80;3.27;;;3.40;99.90;;;;;;4992397;28;20462;-68
2023/03/16 01:46:04;;;;;;;7.63;2.67;;;3.40;99.90;;;;;;4999803;28;20461;-68
2023/03/16 01:48:45;;;;;;;6.93;3.30;;;3.40;99.90;;;;;;5005757;28;20428;-67
2023/03/16 01:51:20;;;;;;;5.70;2.45;;;3.40;99.90;;;;;;4994709;28;21248;-67
2023/03/16 01:53:51;;;;;;;4.63;2.67;;;3.40;99.90;;;;;;5003026;28;20457;-69
2023/03/16 01:56:22;;;;;;;4.03;2.30;;;3.40;99.90;;;;;;4999887;28;20424;-67
2023/03/16 01:58:50;;;;;;;5.82;3.40;;;3.40;99.90;;;;;;4998754;28;20418;-69
2023/03/16 02:01:16;;;;;;;5.75;2.72;;;3.40;99.90;;;;;;4998416;28;20429;-69
2023/03/16 02:03:43;;;;;;;5.28;3.03;;;3.40;99.90;;;;;;5005444;28;20421;-67
2023/03/16 02:06:18;;;;;;;4.47;2.72;;;3.40;99.90;;;;;;4992684;28;20793;-67
2023/03/16 02:08:46;;;;;;;5.20;2.22;;;3.40;99.90;;;;;;4991211;28;20502;-67
2023/03/16 02:11:16;;;;;;;4.93;2.60;;;3.50;99.90;;;;;;5003943;28;20425;-67
2023/03/16 02:13:44;;;;;;;6.13;2.55;;;3.50;99.90;;;;;;5004405;28;20416;-68
2023/03/16 02:16:18;;;;;;;6.05;3.15;;;3.50;99.90;;;;;;4998954;28;20519;-68
2023/03/16 02:18:45;;;;;;;5.50;3.00;;;3.50;99.90;;;;;;5003848;28;20421;-67
2023/03/16 02:21:38;;;;;;;5.25;2.65;;;3.60;99.90;;;;;;5000430;28;20476;-68
2023/03/16 02:24:04;;;;;;;7.72;3.20;;;3.60;99.90;;;;;;5001136;28;20408;-67
2023/03/16 02:26:52;;;;;;;6.32;2.75;;;3.60;99.90;;;;;;4983567;28;20447;-68
2023/03/16 02:29:41;;;;;;;5.90;2.90;;;3.70;99.90;;;;;;4996366;28;20431;-68
2023/03/16 02:32:08;;;;;;;3.85;2.67;;;3.70;99.90;;;;;;4981915;28;20428;-68
2023/03/16 02:34:34;;;;;;;5.32;3.03;;;3.80;99.90;;;;;;5003009;28;20840;-67
2023/03/16 02:37:01;;;;;;;6.38;2.58;;;3.80;99.90;;;;;;5004142;28;20503;-68
2023/03/16 02:39:26;;;;;;;4.25;2.88;;;3.80;99.90;;;;;;5003265;28;20432;-68
2023/03/16 02:41:52;;;;;;;10.63;3.80;;;3.90;99.90;;;;;;5003668;28;20416;-69
2023/03/16 02:44:32;;;;;;;6.50;3.73;;;3.90;99.90;;;;;;5000053;28;20810;-70
2023/03/16 02:47:05;;;;;;;4.70;2.90;;;3.90;99.90;;;;;;4997479;28;20438;-67
2023/03/16 02:49:36;;;;;;;4.80;2.80;;;4.00;99.90;;;;;;5004673;28;20424;-69
2023/03/16 02:52:04;;;;;;;9.13;3.50;;;4.00;99.90;;;;;;4995247;28;21322;-67
2023/03/16 02:54:30;;;;;;;6.45;3.70;;;4.00;99.90;;;;;;4995953;28;20430;-67
2023/03/16 02:56:55;;;;;;;5.28;3.00;;;4.00;99.90;;;;;;5002539;28;20795;-67
2023/03/16 02:59:21;;;;;;;4.75;3.10;;;4.00;99.90;;;;;;4992287;28;20974;-66
2023/03/16 03:01:47;;;;;;;4.95;2.88;;;4.00;99.90;;;;;;5003387;28;20424;-67
2023/03/16 03:04:13;;;;;;;7.70;4.05;;;4.00;99.90;;;;;;5006181;28;20436;-67
2023/03/16 03:06:39;;;;;;;6.22;3.50;;;4.00;99.90;;;;;;5007738;28;20443;-69
2023/03/16 03:09:05;;;;;;;5.28;3.15;;;4.10;99.90;;;;;;5007659;28;20914;-67
2023/03/16 03:11:31;;;;;;;5.93;2.90;;;4.00;99.90;;;;;;5001365;28;20427;-67
2023/03/16 03:13:56;;;;;;;7.10;3.37;;;4.00;99.90;;;;;;5006595;28;20417;-66
2023/03/16 03:16:23;;;;;;;6.93;3.53;;;4.00;99.90;;;;;;5008476;28;20432;-68
2023/03/16 03:18:49;;;;;;;7.07;3.28;;;4.00;99.90;;;;;;5007553;28;20767;-69
2023/03/16 03:21:15;;;;;;;5.28;3.13;;;4.00;99.90;;;;;;5002751;28;20432;-67
2023/03/16 03:23:41;;;;;;;4.50;3.25;;;4.00;99.90;;;;;;5008501;28;20496;-67
2023/03/16 03:26:07;;;;;;;6.13;3.87;;;4.10;99.90;;;;;;5006884;28;20563;-67
2023/03/16 03:28:33;;;;;;;9.53;4.00;;;4.10;99.90;;;;;;5005975;28;20429;-67
2023/03/16 03:31:00;;;;;;;6.22;3.88;;;4.10;99.90;;;;;;5005343;28;20420;-67
2023/03/16 03:33:26;;;;;;;9.70;3.92;;;4.10;99.90;;;;;;5006232;28;20838;-69
2023/03/16 03:35:56;;;;;;;6.23;4.40;;;4.20;99.90;;;;;;5003707;28;20421;-68
2023/03/16 03:38:23;;;;;;;10.00;4.72;;;4.10;99.90;;;;;;5005714;28;20417;-68
2023/03/16 03:40:53;;;;;;;12.48;4.28;;;4.10;99.90;;;;;;4988147;28;20447;-70
2023/03/16 03:43:20;;;;;;;8.25;3.92;;;4.10;99.90;;;;;;5002185;28;20434;-68
2023/03/16 03:45:45;;;;;;;5.22;3.67;;;4.10;99.90;;;;;;5004845;28;20455;-67
2023/03/16 03:48:11;;;;;;;6.95;4.07;;;4.10;99.90;;;;;;5001081;28;20421;-67
2023/03/16 03:50:38;;;;;;;6.35;4.38;;;4.10;99.90;;;;;;5000807;28;20432;-68
2023/03/16 03:53:04;;;;;;;6.88;3.83;;;4.10;99.90;;;;;;5002852;28;20431;-69
2023/03/16 03:55:30;;;;;;;6.23;4.27;;;4.00;99.90;;;;;;4998753;28;20584;-67
2023/03/16 03:57:55;;;;;;;8.18;4.07;;;4.10;99.90;;;;;;5004776;28;20903;-68
2023/03/16 04:00:21;;;;;;;9.60;4.88;;;4.10;99.90;;;;;;4995868;28;20894;-67
2023/03/16 04:02:47;;;;;;;5.90;4.22;;;4.20;99.90;;;;;;5005954;28;20456;-68
2023/03/16 04:05:13;;;;;;;7.32;4.45;;;4.10;99.90;;;;;;5001850;28;20451;-69
2023/03/16 04:07:40;;;;;;;7.67;4.63;;;4.20;99.90;;;;;;4983125;28;20943;-67
2023/03/16 04:10:07;;;;;;;8.10;5.33;;;4.20;99.90;;;;;;5005337;28;20481;-68
2023/03/16 04:12:32;;;;;;;6.13;4.30;;;4.20;99.90;;;;;;5006978;28;21157;-67
2023/03/16 04:14:58;;;;;;;5.55;3.63;;;4.20;99.90;;;;;;4986283;28;20431;-68
2023/03/16 04:17:24;;;;;;;8.10;5.22;;;4.10;99.90;;;;;;5003834;28;20511;-68
2023/03/16 04:19:50;;;;;;;8.07;4.63;;;4.20;99.90;;;;;;5004866;28;20453;-69
2023/03/16 04:22:16;;;;;;;10.13;5.05;;;4.20;99.90;;;;;;5004885;28;20522;-68
2023/03/16 04:24:43;;;;;;;9.05;4.32;;;4.20;99.90;;;;;;5005231;28;20483;-67
2023/03/16 04:27:12;;;;;;;5.47;4.43;;;4.20;99.90;;;;;;5006042;28;20845;-67
2023/03/16 04:29:38;;;;;;;6.75;4.95;;;4.20;99.90;;;;;;5000661;28;20435;-69
2023/03/16 04:32:05;;;;;;;8.33;5.23;;;4.20;99.90;;;;;;4996010;28;20440;-68
2023/03/16 04:34:31;;;;;;;10.37;5.03;;;4.30;99.90;;;;;;4998989;28;21032;-67
2023/03/16 04:36:57;;;;;;;10.30;5.20;;;4.20;99.90;;;;;;4996733;28;20435;-68
2023/03/16 04:39:22;;;;;;;6.23;4.43;;;4.30;99.90;;;;;;4993210;28;21124;-67
2023/03/16 04:41:48;;;;;;;11.67;5.40;;;4.20;99.90;;;;;;4996380;28;20448;-71
2023/03/16 04:44:14;;;;;;;10.10;5.88;;;4.20;99.90;;;;;;4994373;28;20422;-69
2023/03/16 04:46:40;;;;;;;8.00;5.20;;;4.30;99.90;;;;;;5003398;28;20433;-69
2023/03/16 04:49:08;;;;;;;8.05;6.15;;;4.20;99.90;;;;;;5003927;28;20879;-68
2023/03/16 04:51:39;;;;;;;8.32;5.35;;;4.20;99.90;;;;;;5002369;28;20492;-70
2023/03/16 04:54:05;;;;;;;7.85;5.03;;;4.30;99.90;;;;;;5003044;28;20428;-68
2023/03/16 04:56:31;;;;;;;8.73;5.78;;;4.20;99.90;;;;;;5002992;28;20932;-68
2023/03/16 04:58:57;;;;;;;8.45;6.22;;;4.30;99.90;;;;;;5007423;28;20439;-69
2023/03/16 05:01:22;;;;;;;8.93;5.18;;;4.30;99.90;;;;;;5004215;28;20910;-68
2023/03/16 05:03:48;;;;;;;9.35;6.00;;;4.30;99.90;;;;;;5000641;28;20429;-69
2023/03/16 05:06:14;;;;;;;9.30;5.47;;;4.30;99.90;;;;;;4997353;28;20475;-68
2023/03/16 05:08:40;;;;;;;8.35;5.35;;;4.30;99.90;;;;;;4996223;28;20449;-68
2023/03/16 05:11:06;;;;;;;8.65;5.75;;;4.30;99.90;;;;;;4998216;28;21013;-68
2023/03/16 05:13:32;;;;;;;11.18;6.28;;;4.30;99.90;;;;;;5006491;28;20535;-67
2023/03/16 05:15:58;;;;;;;6.80;5.37;;;4.20;99.90;;;;;;4989997;28;20527;-69
2023/03/16 05:18:24;;;;;;;11.48;5.43;;;4.30;99.90;;;;;;4997311;28;20525;-67
2023/03/16 05:20:52;;;;;;;14.25;5.70;;;4.30;99.90;;;;;;5004180;28;20425;-68
2023/03/16 05:23:18;;;;;;;10.05;5.90;;;4.30;99.90;;;;;;5001103;28;20464;-70
2023/03/16 05:25:45;;;;;;;7.72;5.95;;;4.30;99.90;;;;;;5001201;28;20462;-68
2023/03/16 05:28:11;;;;;;;9.02;6.22;;;4.30;99.90;;;;;;4999279;28;20803;-67
2023/03/16 05:30:37;;;;;;;8.33;5.13;;;4.30;99.90;;;;;;4996759;28;20859;-68
2023/03/16 05:33:03;;;;;;;9.10;5.63;;;4.30;99.90;;;;;;5000529;28;20443;-68
2023/03/16 05:35:29;;;;;;;9.63;5.90;;;4.30;99.90;;;;;;5000499;28;20427;-68
2023/03/16 05:37:55;;;;;;;11.85;5.82;;;4.30;99.90;;;;;;4988261;28;20426;-67
2023/03/16 05:40:21;;;;;;;8.45;5.43;;;4.30;99.90;;;;;;5001315;28;20429;-67
2023/03/16 05:42:53;;;;;;;13.00;6.67;;;4.30;99.90;;;;;;5002677;28;20442;-70
2023/03/16 05:45:19;;;;;;;8.57;5.88;;;4.20;99.90;;;;;;4996921;28;20432;-68
2023/03/16 05:47:45;;;;;;;8.87;6.13;;;4.20;99.90;;;;;;5004962;28;20424;-66
2023/03/16 05:50:12;;;;;;;9.73;5.70;;;4.20;99.90;;;;;;4998601;28;20793;-69
2023/03/16 05:52:39;;;;;;;12.23;6.93;;;4.20;99.90;;;;;;4992222;28;20416;-68
2023/03/16 05:55:06;;;;;;;9.88;6.53;;;4.20;99.90;;;;;;4995593;28;20429;-68
2023/03/16 05:57:33;;;;;;;9.50;6.00;;;4.20;99.90;;;;;;4999811;28;20429;-67
2023/03/16 05:59:59;;;;;;;9.35;6.22;;;4.20;99.90;;;;;;4977258;28;20532;-67
2023/03/16 06:02:25;;;;;;;8.15;6.22;;;4.10;99.90;;;;;;4982282;28;20425;-69
2023/03/16 06:04:51;;;;;;;9.17;6.03;;;4.20;99.90;;;;;;5002940;28;20511;-68
2023/03/16 06:07:17;;;;;;;11.55;5.90;;;4.10;99.90;;;;;;5003064;28;20527;-68
2023/03/16 06:09:42;;;;;;;8.55;6.07;;;4.10;99.90;;;;;;5001317;28;20892;-67
2023/03/16 06:12:08;;;;;;;11.32;6.93;;;4.10;99.90;;;;;;4996543;28;20436;-68
2023/03/16 06:14:34;;;;;;;8.52;6.32;;;4.20;99.90;;;;;;4992015;28;20487;-68
2023/03/16 06:17:00;;;;;;;9.48;6.45;;;4.20;99.90;;;;;;4995340;28;20483;-69
2023/03/16 06:19:26;;;;;;;10.00;6.33;;;4.20;99.90;;;;;;4988240;28;20420;-68
2023/03/16 06:21:51;;;;;;;9.50;5.67;;;4.20;99.90;;;;;;4992647;28;20903;-68
2023/03/16 06:24:17;;;;;;;9.93;5.73;;;4.20;99.90;;;;;;5005159;28;20412;-69
2023/03/16 06:26:43;;;;;;;9.38;5.95;;;4.20;99.90;;;;;;4978236;28;20958;-67
2023/03/16 06:29:09;;;;;;;8.20;5.32;;;4.20;99.90;;;;;;4997829;28;20462;-68
2023/03/16 06:31:35;;;;;;;10.50;6.18;;;4.30;99.90;;;;;;5000712;28;20815;-68
2023/03/16 06:34:01;;;;;;;8.88;5.55;;;4.20;99.90;;;;;;4993345;28;20438;-68
2023/03/16 06:36:27;;;;;;;9.20;6.05;;;4.30;99.90;;;;;;4996338;28;20430;-68
2023/03/16 06:38:53;;;;;;;7.88;5.70;;;4.20;99.90;;;;;;5008590;28;20513;-67
2023/03/16 06:41:18;;;;;;;8.63;6.03;;;4.30;99.90;;;;;;5000458;28;20744;-67
2023/03/16 06:43:44;;;;;;;8.60;5.87;;;4.30;99.90;;;;;;4992358;28;20454;-67
2023/03/16 06:46:10;;;;;;;7.80;5.47;;;4.40;99.90;;;;;;4995267;28;20449;-66
2023/03/16 06:48:35;;;;;;;11.63;6.70;;;4.30;99.90;;;;;;5007595;28;20420;-69
2023/03/16 06:51:01;;;;;;;9.50;5.77;;;4.40;99.90;;;;;;5000130;28;20438;-67
2023/03/16 06:53:27;;;;;;;10.07;5.87;;;4.40;99.90;;;;;;4989694;28;20509;-67
2023/03/16 06:55:53;;;;;;;8.17;5.70;;;4.40;99.90;;;;;;5006170;28;20483;-67
2023/03/16 06:58:18;;;;;;;8.33;5.77;;;4.40;99.90;;;;;;5001060;28;20444;-68
2023/03/16 07:00:44;;;;;;;9.63;6.37;;;4.40;99.90;;;;;;4990162;28;20424;-68
2023/03/16 07:03:10;;;;;;;9.93;6.07;;;4.50;99.90;;;;;;5004543;28;20927;-67
2023/03/16 07:05:36;;;;;;;9.57;6.05;;;4.50;99.90;;;;;;5005645;28;20441;-68
2023/03/16 07:08:03;;;;;;;9.32;6.30;;;4.50;99.90;;;;;;5000936;28;20425;-67
2023/03/16 07:10:28;;;;;;;8.75;6.55;;;4.50;99.90;;;;;;4995686;28;20492;-68
2023/03/16 07:12:54;;;;;;;7.57;5.50;;;4.60;99.90;;;;;;5002556;28;20429;-67
2023/03/16 07:15:20;;;;;;;9.90;5.67;;;4.50;99.90;;;;;;5007047;28;20507;-67
2023/03/16 07:17:46;;;;;;;9.00;5.47;;;4.60;99.90;;;;;;5010122;28;20432;-67
2023/03/16 07:20:12;;;;;;;11.15;5.72;;;4.60;99.90;;;;;;5002994;28;20434;-67
2023/03/16 07:22:38;;;;;;;10.63;6.43;;;4.70;99.90;;;;;;4999266;28;20495;-68
2023/03/16 07:25:06;;;;;;;7.22;5.07;;;4.60;99.90;;;;;;5000216;28;20431;-68
2023/03/16 07:27:32;;;;;;;7.07;5.37;;;4.70;99.90;;;;;;5006835;28;20513;-67
2023/03/16 07:29:59;;;;;;;8.80;5.88;;;4.80;99.90;;;;;;5005912;28;20456;-66
2023/03/16 07:32:25;;;;;;;9.25;5.97;;;4.70;99.90;;;;;;5004157;28;20437;-67
2023/03/16 07:34:51;;;;;;;9.50;5.72;;;4.80;99.90;;;;;;5001173;28;20441;-67
2023/03/16 07:37:16;;;;;;;9.57;5.55;;;4.90;99.90;;;;;;5000354;28;20430;-67
2023/03/16 07:39:42;;;;;;;10.90;5.30;;;4.70;99.90;;;;;;5008186;28;20503;-67
2023/03/16 07:42:08;;;;;;;9.27;5.80;;;4.80;99.90;;;;;;5006082;28;20933;-67
2023/03/16 07:44:34;;;;;;;7.60;5.93;;;4.70;99.90;;;;;;5002382;28;20990;-67
2023/03/16 07:47:00;;;;;;;8.47;5.33;;;4.70;99.90;;;;;;5004306;28;20523;-68
2023/03/16 07:49:26;;;;;;;9.82;5.78;;;4.70;99.90;;;;;;5004655;28;20428;-68
2023/03/16 07:51:52;;;;;;;10.00;5.93;;;4.80;99.90;;;;;;5002341;28;20519;-67
2023/03/16 07:54:18;;;;;;;7.95;5.55;;;4.70;99.90;;;;;;5000398;28;21104;-68
2023/03/16 07:56:44;;;;;;;8.60;5.60;;;4.80;99.90;;;;;;5004516;28;20512;-68
2023/03/16 07:59:11;;;;;;;10.88;6.10;;;4.90;99.90;;;;;;5005340;28;20421;-68
2023/03/16 08:01:36;;;;;;;9.05;5.05;;;4.80;99.90;;;;;;4984213;28;20455;-68
2023/03/16 08:04:02;;;;;;;8.98;5.63;;;4.80;99.90;;;;;;4997059;28;20996;-68
2023/03/16 08:06:28;;;;;;;8.27;5.53;;;4.80;99.90;;;;;;5003425;28;20546;-67
2023/03/16 08:08:54;;;;;;;9.88;6.05;;;4.90;99.90;;;;;;5002146;28;20428;-67
2023/03/16 08:11:22;;;;;;;7.80;5.70;;;4.80;99.90;;;;;;5006492;28;20644;-67
2023/03/16 08:13:53;;;;;;;9.68;6.25;;;4.90;99.90;;;;;;5005373;28;20425;-68
2023/03/16 08:16:23;;;;;;;7.60;5.00;;;4.90;99.90;;;;;;4998369;28;20452;-68
2023/03/16 08:18:50;;;;;;;8.45;6.05;;;4.80;99.90;;;;;;4999154;28;20924;-69
2023/03/16 08:21:16;;;;;;;7.35;5.18;;;4.70;99.90;;;;;;5000539;28;20436;-68
2023/03/16 08:23:47;;;;;;;7.25;5.95;;;4.80;99.90;;;;;;4997860;28;20424;-68
2023/03/16 08:26:18;;;;;;;9.05;6.13;;;5.00;99.90;;;;;;4994114;28;20459;-69
2023/03/16 08:28:45;;;;;;;8.23;5.70;;;4.90;99.90;;;;;;5006252;28;20507;-68
2023/03/16 08:31:12;;;;;;;8.97;5.50;;;4.90;99.90;;;;;;5006064;28;20487;-68
2023/03/16 08:33:42;;;;;;;9.27;5.80;;;4.80;99.90;;;;;;5002537;28;20772;-68
2023/03/16 08:36:10;;;;;;;8.83;5.63;;;4.80;99.90;;;;;;5004814;28;20990;-67
2023/03/16 08:38:38;;;;;;;7.68;5.53;;;4.90;99.90;;;;;;5007751;28;20444;-66
2023/03/16 08:41:04;;;;;;;8.77;5.00;;;4.90;99.90;;;;;;5005516;28;20429;-67
2023/03/16 08:43:31;;;;;;;9.05;5.75;;;4.90;99.90;;;;;;5000557;28;20428;-67
2023/03/16 08:45:58;;;;;;;7.15;5.85;;;4.90;99.90;;;;;;5006045;28;20887;-67
2023/03/16 08:48:24;;;;;;;7.32;4.85;;;4.90;99.90;;;;;;4990824;28;20476;-67
2023/03/16 08:50:50;;;;;;;9.32;6.00;;;5.00;99.90;;;;;;5004211;28;20428;-67
2023/03/16 08:53:17;;;;;;;9.45;6.03;;;5.00;99.90;;;;;;4999631;28;20873;-68
2023/03/16 08:55:44;;;;;;;7.65;5.28;;;5.00;99.90;;;;;;5002760;28;20429;-67
2023/03/16 08:58:11;;;;;;;8.27;5.13;;;4.90;99.90;;;;;;5002707;28;20428;-66
2023/03/16 09:00:37;;;;;;;8.85;5.47;;;5.00;99.90;;;;;;5001523;28;20791;-68
2023/03/16 09:03:04;;;;;;;8.43;5.60;;;5.00;99.90;;;;;;5004590;28;20421;-69
2023/03/16 09:05:30;;;;;;;8.48;5.72;;;4.90;99.90;;;;;;5004357;28;20441;-67
2023/03/16 09:07:56;;;;;;;9.05;5.60;;;5.00;99.90;;;;;;4986965;28;20465;-68
2023/03/16 09:10:22;;;;;;;8.52;5.28;;;5.00;99.90;;;;;;5004185;28;20424;-67
2023/03/16 09:12:49;;;;;;;7.45;5.13;;;4.90;99.90;;;;;;5005471;28;20431;-71
2023/03/16 09:15:15;;;;;;;7.00;5.13;;;5.10;99.90;;;;;;4995246;28;20478;-67
2023/03/16 09:17:42;;;;;;;10.90;5.63;;;5.10;99.90;;;;;;5006557;28;20498;-68
2023/03/16 09:20:09;;;;;;;7.53;5.40;;;5.20;99.90;;;;;;5006999;28;20420;-67
2023/03/16 09:22:36;;;;;;;9.20;5.30;;;5.30;99.90;;;;;;5007416;28;20409;-68
2023/03/16 09:25:06;;;;;;;9.20;5.30;;;5.30;99.90;;;;;;4999617;28;20455;-68
2023/03/16 09:27:32;;;;;;;7.65;5.82;;;5.40;99.90;;;;;;5007178;28;20947;-67
2023/03/16 09:29:59;;;;;;;6.78;5.05;;;5.30;99.90;;;;;;4999125;28;20516;-68
2023/03/16 09:32:27;;;;;;;8.10;5.57;;;5.30;99.90;;;;;;5004944;28;21067;-68
2023/03/16 09:34:53;;;;;;;7.97;5.63;;;5.50;99.90;;;;;;5002531;28;20429;-68
2023/03/16 09:37:20;;;;;;;8.25;5.90;;;5.50;99.90;;;;;;5006325;28;20432;-68
2023/03/16 09:39:46;;;;;;;10.50;5.35;;;5.50;99.90;;;;;;5006659;28;20423;-68
2023/03/16 09:42:20;;;;;;;8.57;5.22;;;5.70;99.90;;;;;;5007052;28;20500;-68
2023/03/16 09:44:54;;;;;;;9.80;5.60;;;5.70;99.90;;;;;;5005922;28;20408;-68
2023/03/16 09:47:29;;;;;;;9.23;5.00;;;5.70;99.90;;;;;;5007317;28;20941;-68
2023/03/16 09:50:12;;;;;;;6.70;4.70;;;5.50;99.90;;;;;;5002451;28;20435;-68
2023/03/16 09:53:01;;;;;;;13.10;5.38;;;5.60;99.90;;;;;;5006408;28;20453;-67
2023/03/16 09:55:30;;;;;;;6.63;4.47;;;5.50;99.90;;;;;;5007440;28;20486;-67
2023/03/16 09:57:58;;;;;;;7.82;4.63;;;5.60;99.90;;;;;;5006418;28;20417;-67
2023/03/16 10:00:32;;;;;;;6.72;5.00;;;5.60;99.90;;;;;;5007493;28;20441;-67
2023/03/16 10:03:04;;;;;;;7.88;5.40;;;5.80;99.90;;;;;;5005205;28;20441;-67
2023/03/16 10:05:31;;;;;;;8.48;4.75;;;5.70;99.90;;;;;;5000598;28;20443;-68
2023/03/16 10:08:14;;;;;;;7.07;4.13;;;5.70;99.90;;;;;;4995003;28;20424;-67
2023/03/16 10:10:52;;;;;;;10.20;4.82;;;5.70;99.90;;;;;;4990983;28;20439;-69
2023/03/16 10:13:41;;;;;;;8.23;4.68;;;5.80;99.90;;;;;;4998741;28;20500;-69
2023/03/16 10:16:13;;;;;;;10.80;5.00;;;5.90;99.90;;;;;;4993485;28;20432;-67
2023/03/16 10:18:47;;;;;;;8.20;4.75;;;6.00;99.90;;;;;;4987262;28;20414;-68
2023/03/16 10:21:17;;;;;;;6.63;4.75;;;5.90;99.90;;;;;;5001902;28;20435;-68
2023/03/16 10:23:45;;;;;;;6.93;3.90;;;5.80;99.90;;;;;;5004815;28;20428;-68
2023/03/16 10:26:27;;;;;;;7.20;3.67;;;5.90;99.90;;;;;;5005093;28;20965;-67
2023/03/16 10:28:53;;;;;;;7.20;3.70;;;5.90;99.90;;;;;;5000778;28;20429;-68
2023/03/16 10:31:21;;;;;;;6.85;3.90;;;5.90;99.90;;;;;;5001203;28;20525;-67
2023/03/16 10:33:51;;;;;;;6.10;4.05;;;6.00;99.90;;;;;;5006797;28;20412;-67
2023/03/16 10:36:26;;;;;;;8.27;4.22;;;6.00;99.90;;;;;;5005784;28;20772;-68
2023/03/16 10:38:58;;;;;;;10.45;4.28;;;6.00;99.90;;;;;;5006036;28;20435;-67
2023/03/16 10:41:30;;;;;;;6.53;4.20;;;6.10;99.90;;;;;;5006239;28;20443;-67
2023/03/16 10:44:11;;;;;;;8.02;4.03;;;6.20;99.90;;;;;;4996993;28;20507;-66
2023/03/16 10:46:39;;;;;;;6.95;4.15;;;6.30;99.90;;;;;;4984895;28;20453;-67
2023/03/16 10:49:16;;;;;;;5.72;4.00;;;6.30;99.90;;;;;;4986159;28;20494;-67
2023/03/16 10:51:42;;;;;;;8.07;4.18;;;6.40;99.90;;;;;;4985557;28;20426;-68
2023/03/16 10:54:23;;;;;;;5.35;3.88;;;6.50;99.90;;;;;;4984838;28;20429;-68
2023/03/16 10:56:49;;;;;;;6.88;4.15;;;6.60;99.90;;;;;;4985931;28;20465;-68
2023/03/16 10:59:35;;;;;;;6.18;4.10;;;6.80;99.90;;;;;;4998855;28;20927;-68
2023/03/16 11:02:14;;;;;;;5.87;4.03;;;6.70;99.90;;;;;;5004457;28;20431;-68
2023/03/16 11:04:40;;;;;;;6.05;4.40;;;7.00;99.90;;;;;;5005883;28;20412;-67
2023/03/16 11:07:10;;;;;;;8.20;4.32;;;6.80;99.90;;;;;;5002860;28;20432;-67
2023/03/16 11:09:36;;;;;;;8.02;4.40;;;7.00;99.90;;;;;;5006163;28;20428;-68
2023/03/16 11:12:20;;;;;;;8.10;4.85;;;6.90;99.90;;;;;;5004981;28;20907;-68
2023/03/16 11:14:47;;;;;;;9.05;4.40;;;6.90;99.90;;;;;;5005796;28;20413;-67
2023/03/16 11:17:44;;;;;;;7.80;4.43;;;7.00;99.90;;;;;;5003896;28;20424;-67
2023/03/16 11:20:20;;;;;;;7.18;5.38;;;7.10;99.90;;;;;;4995893;28;20428;-67
2023/03/16 11:22:47;;;;;;;7.28;3.92;;;7.00;99.90;;;;;;5005973;28;20544;-67
2023/03/16 11:25:40;;;;;;;6.10;4.22;;;7.10;99.90;;;;;;5008018;28;20419;-68
2023/03/16 11:28:11;;;;;;;7.80;4.97;;;7.10;99.90;;;;;;5002727;28;20486;-68
2023/03/16 11:31:13;;;;;;;6.60;4.22;;;7.50;99.90;;;;;;5003615;28;21594;-66
2023/03/16 11:33:39;;;;;;;10.50;4.22;;;7.50;99.90;;;;;;4967434;28;20424;-67
2023/03/16 11:36:34;;;;;;;5.82;4.30;;;7.50;99.90;;;;;;4999957;28;20443;-68
2023/03/16 11:39:14;;;;;;;7.17;4.20;;;7.60;99.90;;;;;;5008831;28;21180;-67
2023/03/16 11:41:52;;;;;;;8.23;4.57;;;7.80;99.90;;;;;;5007615;28;20416;-67
2023/03/16 11:44:41;;;;;;;5.45;4.07;;;7.60;99.90;;;;;;4998740;28;20424;-70
2023/03/16 11:47:44;;;;;;;6.10;3.78;;;7.80;99.90;;;;;;4988003;28;20441;-67
2023/03/16 11:50:43;;;;;;;8.40;3.90;;;8.10;99.90;;;;;;4990363;28;20421;-69
2023/03/16 11:53:47;;;;;;;5.70;3.90;;;8.30;99.90;;;;;;5002098;28;21233;-68
2023/03/16 11:56:43;;;;;;;7.15;4.68;;;8.20;99.90;;;;;;4990037;28;20466;-67
2023/03/16 11:59:23;;;;;;;8.00;4.35;;;8.20;99.90;;;;;;4994856;28;20771;-68
2023/03/16 12:02:14;;;;;;;7.93;4.30;;;8.20;99.90;;;;;;5008054;28;20530;-70
2023/03/16 12:05:06;;;;;;;7.00;3.75;;;8.20;99.90;;;;;;5009056;28;20409;-69
2023/03/16 12:07:54;;;;;;;9.18;5.07;;;8.60;99.90;;;;;;4991530;28;20412;-68
2023/03/16 12:10:59;;;;;;;5.50;3.70;;;8.70;99.90;;;;;;5008553;28;20451;-68
2023/03/16 12:13:35;;;;;;;8.38;4.50;;;8.40;99.90;;;;;;5002631;28;20440;-68
2023/03/16 12:16:26;;;;;;;5.40;3.63;;;8.60;99.90;;;;;;5002995;28;20501;-68
2023/03/16 12:19:05;;;;;;;8.20;3.83;;;8.60;99.90;;;;;;4988949;28;20467;-67
2023/03/16 12:21:36;;;;;;;5.82;3.92;;;8.60;99.90;;;;;;4987345;28;20643;-69
2023/03/16 12:24:07;;;;;;;5.78;3.67;;;8.70;99.90;;;;;;4994546;28;20897;-68
2023/03/16 12:26:38;;;;;;;5.25;3.70;;;8.70;99.90;;;;;;5007443;28;20456;-68
2023/03/16 12:29:32;;;;;;;7.15;3.70;;;8.70;99.90;;;;;;5008779;28;20416;-67
2023/03/16 12:32:27;;;;;;;6.70;4.05;;;8.80;99.90;;;;;;5007121;28;20424;-69
2023/03/16 12:35:01;;;;;;;7.27;3.73;;;8.90;99.90;;;;;;5005737;28;20853;-68
2023/03/16 12:37:36;;;;;;;5.25;3.10;;;8.80;99.90;;;;;;5009070;28;20431;-68
2023/03/16 12:40:07;;;;;;;7.65;3.90;;;8.70;99.90;;;;;;4990873;28;20918;-68
2023/03/16 12:42:52;;;;;;;6.80;3.53;;;8.80;99.90;;;;;;4991103;28;20422;-69
2023/03/16 12:45:31;;;;;;;4.10;3.03;;;8.70;99.90;;;;;;4987787;28;20452;-71
2023/03/16 12:48:26;;;;;;;7.07;3.20;;;8.90;99.90;;;;;;4988509;28;20497;-68
2023/03/16 12:51:02;;;;;;;6.93;3.20;;;8.60;99.90;;;;;;4986097;28;20537;-68
2023/03/16 12:53:44;;;;;;;6.05;3.45;;;8.70;99.90;;;;;;4990895;28;20437;-69
2023/03/16 12:56:14;;;;;;;4.18;3.45;;;8.80;99.90;;;;;;5006517;28;20416;-68
2023/03/16 12:58:46;;;;;;;7.63;3.65;;;8.80;99.90;;;;;;5008125;28;20405;-68
2023/03/16 13:01:14;;;;;;;5.75;3.22;;;8.80;99.90;;;;;;4987640;28;20444;-68
2023/03/16 13:03:41;;;;;;;5.93;2.92;;;8.70;99.90;;;;;;5005306;28;20432;-68
2023/03/16 13:06:23;;;;;;;4.45;3.47;;;8.90;99.90;;;;;;5006266;28;20459;-69
2023/03/16 13:08:58;;;;;;;6.75;3.72;;;8.90;99.90;;;;;;5005139;28;20753;-69
2023/03/16 13:11:25;;;;;;;5.63;3.08;;;8.90;99.90;;;;;;5006274;28;20505;-68